map of MXL home
MXL - Airport
Location
City:  Mexicali, Baja California, México
Name:General Rodolfo Sánchez Taboada International Airport
ICAO:MMML
IATA:MXL

Details
Type:Airport (Aerodrome, Airfield)
Use:Public/Civil, International (customs port of entry)
Latitude:32°37'50"N (32.630634)
Longitude:115°14'30"W (-115.241636)
Datum:other
Elevation:74 ft (23 m)
Variation:10.98°E (WMM2015 magnetic declination)
-0.09° annual change
Runways:1
Longest:8530 × 148 ft (2600 × 45 m), paved

Time
Time Zone:UTC-8 (DST-7)
Local Time:

Weather
METAR:MMML 110841Z 25003KT 10SM BKN070 OVC200 12/09 A3002 RMK SLP166 57007 991 8/077

Related Locations
Nearby:
Farthest:RRG: 11540 mi / 18571 km
Plaine Corail [Sir Gaëtan Duval Airport (Plaine Corail Airport)], Rodrigues Island, MU

Find:

   beyond  
but within

Other Information
Maps:
NOTAMs:
Links:
Sources:

  
  • flag of México
  • flag of Baja California
  

Sectional Chart

Flight Planning
at skyvector.com

Satellite Image

Google Maps Satellite view

 

Copyright © 2004-2018 Karl L. Swartz. All rights reserved.
The Great Circle Mapper name and logo are trademarks of the Great Circle Mapper.
All other trademarks mentioned herein belong to their respective owners.
Please see credits for attibutions and further copyright information.

  Follow gcmap on Facebook Follow gcmap on Twitter Follow gcmap on Google+ GCmap on LinkedIn

hCard Microformat

Geo Microformat